Salt Flat, TX (79847)

1:09 PM MDT on July 25, 2014 (GMT -0600)
APRSWXNET Dellcity TX US (MD1118) Elev 3690 ft | 31.73 °N, 104.93 °W | Change Station

Current weather conditions updated 36 minutes ago

Clear
Clear
95 °F
Feels Like 92 °F
N
0
Wind Variable Wind from WNW
Gusts 0.0 mph

Today is forecast to be nearly the same temperature as yesterday.

Today
High -- | Low -- °F
--% Chance of Precip.
Yesterday
High -- | Low -- °F
Precip. -- in
6:11 AM 8:01 PM
Waning Crescent, 1% visible
Pressure 29.96 in
Visibility 8.0 miles
Clouds Clear
Heat Index 92 °F
Dew Point 50 °F
Humidity 22%
Rainfall 0.00 in
Snow Depth Not available.
UV 13 out of 12
Pollen 4.70 out of 12
Air Quality Not available.
Flu Activity Not available.
METAR KGDP 251851Z AUTO VRB03KT 8SM CLR 32/11 A3025 RMK AO2 SLP144 T03220106

More Conditions Fewer Conditions

Pressure 29.96 in
Visibility 8.0 miles
Clouds Clear
Heat Index 92 °F
Dew Point 50 °F
Humidity 22%
Rainfall 0.00 in
Snow Depth Not available.
UV 13 out of 12
Pollen 4.70 out of 12
Air Quality Not available.
Flu Activity Not available.
METAR KGDP 251851Z AUTO VRB03KT 8SM CLR 32/11 A3025 RMK AO2 SLP144 T03220106

More Conditions Fewer Conditions

10-Day Weather Forecast

Almanac

Astronomy

Jul. 25, 2014 Rise Set
Actual Time 6:11 AM MDT 8:01 PM MDT
Civil Twilight 5:44 AM MDT 8:28 PM MDT
Nautical Twilight 5:12 AM MDT 9:01 PM MDT
Astronomical Twilight 4:37 AM MDT 9:35 PM MDT
Moon 5:10 AM MDT 7:03 PM MDT
Length of Visible Light 14h 43m
Length of Day
13h 49m
Tomorrow will be 1m 17s shorter.
Waning Crescent, 1% of the Moon is Illuminated
Today
Waning Crescent
Jul 26
New
Aug 3
First Quarter
Aug 10
Full
Aug 17
Last Quarter

Today's Extremes

State Highs State Lows

Community

WunderPhotos

Upload Photos

1,737,370 photos uploaded!

Nearby

Snow Depth

Station Depth Elevation
No new snow has been reported.

Earthquake Activity

City Distance Mag. Time & Date
No recent earthquake activity has been reported nearby.
Minimum magnitude displayed is 2.5.

Coastal Water Temperatures

Place Temperature
No Stations Reporting

Nearby Weather Stations

Station Location Temp. Heat Index Dew Point Humidity Wind Precip. Elev Updated Type
APRSWXNET Dellcity TX , Salt Flat, TX 95 °F 92 °F 50 °F 22% WNW  at  0 mph 0.00 in / hr 3690 ft 12:33 PM MDT MADIS
APRSWXNET Salt Flat TX , Salt Flat, TX 93 °F 90 °F 51 °F 24% NE  at  5 mph 0.00 in / hr 3681 ft 12:33 PM MDT MADIS
RAWS PX WELL TX, Dell City, TX 90 °F 88 °F 54 °F 30% SW  at  5 mph 0.00 in / hr 3873 ft 11:53 AM MDT MADIS
RAWS PINERY TX, Salt Flat, TX 84 °F 82 °F 52 °F 33% South  at  9 mph 0.00 in / hr 5380 ft 11:52 AM MDT MADIS
WT_Meso Pine Springs GMNP, Salt Flat, TX 85 °F 83 °F 49 °F 30% South  at  8 mph 0.00 in / hr 5570 ft 12:25 PM MDT MADIS
RAWS DOG CANYON TX, Salt Flat, TX 81 °F 80 °F 51 °F 35% West  at  6 mph 0.00 in / hr 6262 ft 11:54 AM MDT MADIS
RAWS THE BOWL TX, Salt Flat, TX 77 °F 78 °F 51 °F 41% ESE  at  4 mph 0.00 in / hr 7754 ft 11:38 AM MDT MADIS

Show More Stations Show Fewer Stations